Lewistown

About
Name: Lewistown
Identifier:  LWT/KLWT
Local Time:  19. Aug 04:17 MDT
Location
Flights per Day
0 flights
Distance: 155km (96mi)
Punctuality
50% (0 flights per day delayed)
Delay Average: 274 minutes
Current Weather
 11 C (Humidity: 76%)
  4kt (7km/h / 4mph) from 140°
  16km (10 mi.)
 
 METAR KLWT 190854Z AUTO 14004KT 10SM CLR 11/07 A2988 RMK AO2 SLP088 T01110072 56002

Current Flights

Departures
Number Departure To Airline
Arrivals
Number Arrival From Airline

Current Delays

Departures
N/A
Arrivals
N/A

Destinations

Top Destinations
Airport Flights
per week
Seats
per week
  Billings (BIL) 6 - 0 0
  Havre (HVR) 2 - 0 0
  Denver (APA) 0 - 0 0
  Bismarck (BIS) 0 - 0 0
  Spokane (GEG) 0 - 0 0
  Seattle (BFI) 0 - 0 0
  Wahpeton (WAH) 0 - 0 0
  Saratoga (SAA) 0 - 0 0
  Kalispell (FCA) 0 - 0 0
  Everett (PAE) 0 - 0 0
  Bakersfield (BFL) 0 - 0 0
  Portland (HIO) 0 - 0 0
  Aberdeen (ABR) 0 - 0 0
  Oshkosh (OSH) 0 - 0 0
  Spokane (SFF) 0 - 0 0

Airlines & Planes

Top Airlines
Airline Flights
per Day
Seats
per Day
Richland Aviation 1 -
Jet Charter Inc ( Franklin Lakes Nj ) 0 -
Jet Linx Aviation 0 -
  Nolinor Aviation 0 -
NetJets 0 0
Top Plane Types
Model Flights Seats
Cessna C404 1.1/day - 0
Beech B200 Super King Air 0.1/day - 0
Cessna C680 0.1/day - 0
Pilatus PC-12 0.1/day - 0
Piper PA-46-350P Malibu Mirage 0.1/day - 0
Cessna C56X 0.0/day - -0.06666666666666667